sensor_id;sensor_type;location;lat;lon;timestamp;P1;durP1;ratioP1;P2;durP2;ratioP2
313;SDS011;143;51.634;7.112;2023-08-06T00:00:14;10.67;;;7.90;;
313;SDS011;143;51.634;7.112;2023-08-06T00:02:39;11.50;;;8.23;;
313;SDS011;143;51.634;7.112;2023-08-06T00:05:05;9.77;;;7.40;;
313;SDS011;143;51.634;7.112;2023-08-06T00:07:31;11.67;;;7.97;;
313;SDS011;143;51.634;7.112;2023-08-06T00:09:57;18.37;;;8.90;;
313;SDS011;143;51.634;7.112;2023-08-06T00:12:23;10.90;;;6.87;;
313;SDS011;143;51.634;7.112;2023-08-06T00:14:52;16.10;;;7.60;;
313;SDS011;143;51.634;7.112;2023-08-06T00:17:18;11.00;;;7.30;;
313;SDS011;143;51.634;7.112;2023-08-06T00:19:44;11.33;;;6.70;;
313;SDS011;143;51.634;7.112;2023-08-06T00:22:10;12.10;;;8.20;;
313;SDS011;143;51.634;7.112;2023-08-06T00:24:35;11.00;;;7.60;;
313;SDS011;143;51.634;7.112;2023-08-06T00:27:01;12.13;;;7.57;;
313;SDS011;143;51.634;7.112;2023-08-06T00:29:27;8.33;;;5.90;;
313;SDS011;143;51.634;7.112;2023-08-06T00:31:53;8.10;;;6.63;;
313;SDS011;143;51.634;7.112;2023-08-06T00:34:19;11.40;;;6.10;;
313;SDS011;143;51.634;7.112;2023-08-06T00:36:44;6.60;;;5.30;;
313;SDS011;143;51.634;7.112;2023-08-06T00:39:10;9.23;;;5.77;;
313;SDS011;143;51.634;7.112;2023-08-06T00:41:36;8.50;;;4.87;;
313;SDS011;143;51.634;7.112;2023-08-06T00:44:02;10.83;;;5.47;;
313;SDS011;143;51.634;7.112;2023-08-06T00:46:28;11.90;;;4.80;;
313;SDS011;143;51.634;7.112;2023-08-06T00:48:53;9.03;;;4.30;;
313;SDS011;143;51.634;7.112;2023-08-06T00:51:20;6.53;;;4.20;;
313;SDS011;143;51.634;7.112;2023-08-06T00:53:47;8.27;;;4.20;;
313;SDS011;143;51.634;7.112;2023-08-06T00:56:14;7.60;;;5.20;;
313;SDS011;143;51.634;7.112;2023-08-06T00:58:40;7.57;;;4.63;;
313;SDS011;143;51.634;7.112;2023-08-06T01:01:06;10.73;;;5.00;;
313;SDS011;143;51.634;7.112;2023-08-06T01:03:32;10.50;;;4.50;;
313;SDS011;143;51.634;7.112;2023-08-06T01:05:57;8.07;;;5.27;;
313;SDS011;143;51.634;7.112;2023-08-06T01:08:42;14.93;;;5.43;;
313;SDS011;143;51.634;7.112;2023-08-06T01:14:15;9.30;;;5.97;;
313;SDS011;143;51.634;7.112;2023-08-06T01:16:49;9.53;;;6.60;;
313;SDS011;143;51.634;7.112;2023-08-06T01:19:17;9.80;;;6.70;;
313;SDS011;143;51.634;7.112;2023-08-06T01:21:43;11.17;;;6.93;;
313;SDS011;143;51.634;7.112;2023-08-06T01:24:09;9.40;;;7.00;;
313;SDS011;143;51.634;7.112;2023-08-06T01:26:39;9.83;;;6.20;;
313;SDS011;143;51.634;7.112;2023-08-06T01:29:15;11.67;;;6.10;;
313;SDS011;143;51.634;7.112;2023-08-06T01:31:50;9.73;;;6.00;;
313;SDS011;143;51.634;7.112;2023-08-06T01:34:18;10.80;;;6.57;;
313;SDS011;143;51.634;7.112;2023-08-06T01:36:50;13.53;;;8.07;;
313;SDS011;143;51.634;7.112;2023-08-06T01:39:16;9.33;;;6.50;;
313;SDS011;143;51.634;7.112;2023-08-06T01:41:42;11.80;;;5.70;;
313;SDS011;143;51.634;7.112;2023-08-06T01:44:07;15.30;;;7.00;;
313;SDS011;143;51.634;7.112;2023-08-06T01:46:33;8.57;;;6.10;;
313;SDS011;143;51.634;7.112;2023-08-06T01:48:59;9.20;;;6.30;;
313;SDS011;143;51.634;7.112;2023-08-06T01:51:24;10.70;;;5.70;;
313;SDS011;143;51.634;7.112;2023-08-06T01:53:50;8.87;;;6.07;;
313;SDS011;143;51.634;7.112;2023-08-06T01:56:16;12.03;;;5.63;;
313;SDS011;143;51.634;7.112;2023-08-06T01:58:41;8.60;;;6.10;;
313;SDS011;143;51.634;7.112;2023-08-06T02:01:07;9.53;;;5.23;;
313;SDS011;143;51.634;7.112;2023-08-06T02:03:32;12.03;;;5.10;;
313;SDS011;143;51.634;7.112;2023-08-06T02:05:58;14.17;;;5.17;;
313;SDS011;143;51.634;7.112;2023-08-06T02:08:24;9.77;;;4.93;;
313;SDS011;143;51.634;7.112;2023-08-06T02:10:49;8.20;;;5.67;;
313;SDS011;143;51.634;7.112;2023-08-06T02:13:15;11.07;;;5.70;;
313;SDS011;143;51.634;7.112;2023-08-06T02:15:44;8.97;;;4.80;;
313;SDS011;143;51.634;7.112;2023-08-06T02:18:13;10.93;;;5.50;;
313;SDS011;143;51.634;7.112;2023-08-06T02:20:40;8.80;;;5.20;;
313;SDS011;143;51.634;7.112;2023-08-06T02:23:05;8.70;;;4.77;;
313;SDS011;143;51.634;7.112;2023-08-06T02:25:31;7.97;;;4.77;;
313;SDS011;143;51.634;7.112;2023-08-06T02:27:57;8.40;;;5.10;;
313;SDS011;143;51.634;7.112;2023-08-06T02:30:22;13.43;;;4.57;;
313;SDS011;143;51.634;7.112;2023-08-06T02:32:48;7.93;;;4.70;;
313;SDS011;143;51.634;7.112;2023-08-06T02:35:14;10.70;;;5.50;;
313;SDS011;143;51.634;7.112;2023-08-06T02:37:39;14.30;;;5.57;;
313;SDS011;143;51.634;7.112;2023-08-06T02:40:05;6.97;;;5.33;;
313;SDS011;143;51.634;7.112;2023-08-06T02:42:31;7.97;;;5.40;;
313;SDS011;143;51.634;7.112;2023-08-06T02:44:57;10.50;;;4.47;;
313;SDS011;143;51.634;7.112;2023-08-06T02:47:23;5.30;;;4.47;;
313;SDS011;143;51.634;7.112;2023-08-06T02:49:49;10.20;;;4.50;;
313;SDS011;143;51.634;7.112;2023-08-06T02:52:14;6.37;;;5.13;;
313;SDS011;143;51.634;7.112;2023-08-06T02:54:40;7.77;;;5.40;;
313;SDS011;143;51.634;7.112;2023-08-06T02:57:06;6.57;;;4.40;;
313;SDS011;143;51.634;7.112;2023-08-06T02:59:32;13.33;;;4.90;;
313;SDS011;143;51.634;7.112;2023-08-06T03:01:58;6.53;;;4.73;;
313;SDS011;143;51.634;7.112;2023-08-06T03:04:23;13.03;;;4.50;;
313;SDS011;143;51.634;7.112;2023-08-06T03:06:49;9.87;;;4.73;;
313;SDS011;143;51.634;7.112;2023-08-06T03:09:16;10.40;;;4.77;;
313;SDS011;143;51.634;7.112;2023-08-06T03:11:42;8.90;;;4.90;;
313;SDS011;143;51.634;7.112;2023-08-06T03:14:07;8.33;;;4.77;;
313;SDS011;143;51.634;7.112;2023-08-06T03:16:33;6.43;;;4.30;;
313;SDS011;143;51.634;7.112;2023-08-06T03:18:59;7.30;;;4.90;;
313;SDS011;143;51.634;7.112;2023-08-06T03:21:25;9.40;;;4.90;;
313;SDS011;143;51.634;7.112;2023-08-06T03:23:50;5.27;;;4.00;;
313;SDS011;143;51.634;7.112;2023-08-06T03:26:16;9.40;;;4.90;;
313;SDS011;143;51.634;7.112;2023-08-06T03:28:42;7.63;;;4.77;;
313;SDS011;143;51.634;7.112;2023-08-06T03:31:07;22.03;;;5.40;;
313;SDS011;143;51.634;7.112;2023-08-06T03:33:33;6.90;;;4.57;;
313;SDS011;143;51.634;7.112;2023-08-06T03:35:59;6.73;;;4.77;;
313;SDS011;143;51.634;7.112;2023-08-06T03:38:25;9.87;;;4.90;;
313;SDS011;143;51.634;7.112;2023-08-06T03:40:51;8.53;;;4.73;;
313;SDS011;143;51.634;7.112;2023-08-06T03:43:16;10.33;;;4.33;;
313;SDS011;143;51.634;7.112;2023-08-06T03:45:42;11.10;;;5.40;;
313;SDS011;143;51.634;7.112;2023-08-06T03:48:08;10.13;;;4.43;;
313;SDS011;143;51.634;7.112;2023-08-06T03:50:34;8.03;;;4.50;;
313;SDS011;143;51.634;7.112;2023-08-06T03:53:00;8.50;;;4.47;;
313;SDS011;143;51.634;7.112;2023-08-06T03:55:26;13.73;;;4.70;;
313;SDS011;143;51.634;7.112;2023-08-06T03:57:52;9.00;;;4.53;;
313;SDS011;143;51.634;7.112;2023-08-06T04:00:18;7.50;;;4.30;;
313;SDS011;143;51.634;7.112;2023-08-06T04:02:44;6.07;;;3.70;;
313;SDS011;143;51.634;7.112;2023-08-06T04:05:10;5.70;;;3.70;;
313;SDS011;143;51.634;7.112;2023-08-06T04:07:35;6.17;;;4.30;;
313;SDS011;143;51.634;7.112;2023-08-06T04:10:02;5.67;;;4.67;;
313;SDS011;143;51.634;7.112;2023-08-06T04:12:29;7.33;;;4.37;;
313;SDS011;143;51.634;7.112;2023-08-06T04:14:55;7.27;;;4.60;;
313;SDS011;143;51.634;7.112;2023-08-06T04:17:22;9.03;;;4.67;;
313;SDS011;143;51.634;7.112;2023-08-06T04:19:52;7.23;;;4.40;;
313;SDS011;143;51.634;7.112;2023-08-06T04:22:19;7.17;;;4.40;;
313;SDS011;143;51.634;7.112;2023-08-06T04:24:46;8.87;;;4.53;;
313;SDS011;143;51.634;7.112;2023-08-06T04:27:12;10.30;;;4.30;;
313;SDS011;143;51.634;7.112;2023-08-06T04:29:39;5.37;;;3.83;;
313;SDS011;143;51.634;7.112;2023-08-06T04:32:05;11.63;;;4.43;;
313;SDS011;143;51.634;7.112;2023-08-06T04:34:33;9.10;;;4.53;;
313;SDS011;143;51.634;7.112;2023-08-06T04:36:59;9.93;;;3.93;;
313;SDS011;143;51.634;7.112;2023-08-06T04:39:25;10.73;;;4.40;;
313;SDS011;143;51.634;7.112;2023-08-06T04:41:51;7.83;;;4.60;;
313;SDS011;143;51.634;7.112;2023-08-06T04:44:16;8.53;;;4.37;;
313;SDS011;143;51.634;7.112;2023-08-06T04:46:42;8.33;;;4.90;;
313;SDS011;143;51.634;7.112;2023-08-06T04:49:08;10.33;;;4.70;;
313;SDS011;143;51.634;7.112;2023-08-06T04:51:34;6.20;;;4.97;;
313;SDS011;143;51.634;7.112;2023-08-06T04:53:59;7.50;;;4.10;;
313;SDS011;143;51.634;7.112;2023-08-06T04:56:25;7.90;;;4.60;;
313;SDS011;143;51.634;7.112;2023-08-06T04:58:51;11.50;;;5.10;;
313;SDS011;143;51.634;7.112;2023-08-06T05:01:16;8.13;;;4.87;;
313;SDS011;143;51.634;7.112;2023-08-06T05:03:42;6.73;;;4.20;;
313;SDS011;143;51.634;7.112;2023-08-06T05:06:08;5.90;;;4.77;;
313;SDS011;143;51.634;7.112;2023-08-06T05:08:34;9.03;;;4.87;;
313;SDS011;143;51.634;7.112;2023-08-06T05:10:59;10.23;;;4.40;;
313;SDS011;143;51.634;7.112;2023-08-06T05:13:25;17.50;;;4.43;;
313;SDS011;143;51.634;7.112;2023-08-06T05:15:52;6.77;;;4.83;;
313;SDS011;143;51.634;7.112;2023-08-06T05:18:19;10.80;;;4.80;;
313;SDS011;143;51.634;7.112;2023-08-06T05:20:44;7.33;;;4.07;;
313;SDS011;143;51.634;7.112;2023-08-06T05:23:10;11.93;;;4.60;;
313;SDS011;143;51.634;7.112;2023-08-06T05:25:37;6.70;;;4.83;;
313;SDS011;143;51.634;7.112;2023-08-06T05:28:03;6.97;;;5.20;;
313;SDS011;143;51.634;7.112;2023-08-06T05:30:29;10.30;;;5.63;;
313;SDS011;143;51.634;7.112;2023-08-06T05:32:54;9.10;;;5.40;;
313;SDS011;143;51.634;7.112;2023-08-06T05:35:21;8.83;;;4.27;;
313;SDS011;143;51.634;7.112;2023-08-06T05:37:47;9.63;;;4.90;;
313;SDS011;143;51.634;7.112;2023-08-06T05:40:13;8.17;;;5.00;;
313;SDS011;143;51.634;7.112;2023-08-06T05:42:39;10.33;;;4.53;;
313;SDS011;143;51.634;7.112;2023-08-06T05:45:05;9.47;;;4.97;;
313;SDS011;143;51.634;7.112;2023-08-06T05:47:31;7.30;;;5.03;;
313;SDS011;143;51.634;7.112;2023-08-06T05:49:57;7.27;;;4.67;;
313;SDS011;143;51.634;7.112;2023-08-06T05:52:23;9.23;;;5.13;;
313;SDS011;143;51.634;7.112;2023-08-06T05:54:48;6.83;;;4.40;;
313;SDS011;143;51.634;7.112;2023-08-06T05:57:14;7.63;;;5.10;;
313;SDS011;143;51.634;7.112;2023-08-06T05:59:40;13.13;;;4.70;;
313;SDS011;143;51.634;7.112;2023-08-06T06:02:06;10.23;;;5.57;;
313;SDS011;143;51.634;7.112;2023-08-06T06:04:32;6.67;;;4.90;;
313;SDS011;143;51.634;7.112;2023-08-06T06:06:58;6.47;;;4.57;;
313;SDS011;143;51.634;7.112;2023-08-06T06:09:23;11.87;;;4.20;;
313;SDS011;143;51.634;7.112;2023-08-06T06:11:49;9.07;;;4.90;;
313;SDS011;143;51.634;7.112;2023-08-06T06:14:16;6.60;;;4.60;;
313;SDS011;143;51.634;7.112;2023-08-06T06:16:45;6.00;;;4.83;;
313;SDS011;143;51.634;7.112;2023-08-06T06:19:11;8.97;;;4.47;;
313;SDS011;143;51.634;7.112;2023-08-06T06:21:37;4.17;;;3.93;;
313;SDS011;143;51.634;7.112;2023-08-06T06:24:04;9.77;;;3.73;;
313;SDS011;143;51.634;7.112;2023-08-06T06:26:30;6.80;;;4.20;;
313;SDS011;143;51.634;7.112;2023-08-06T06:28:57;10.53;;;4.43;;
313;SDS011;143;51.634;7.112;2023-08-06T06:31:22;7.53;;;4.30;;
313;SDS011;143;51.634;7.112;2023-08-06T06:33:48;8.93;;;4.80;;
313;SDS011;143;51.634;7.112;2023-08-06T06:36:14;5.83;;;4.43;;
313;SDS011;143;51.634;7.112;2023-08-06T06:38:40;10.40;;;5.90;;
313;SDS011;143;51.634;7.112;2023-08-06T06:41:05;7.57;;;4.43;;
313;SDS011;143;51.634;7.112;2023-08-06T06:43:31;7.20;;;3.60;;
313;SDS011;143;51.634;7.112;2023-08-06T06:45:57;6.83;;;4.50;;
313;SDS011;143;51.634;7.112;2023-08-06T06:48:27;4.60;;;3.40;;
313;SDS011;143;51.634;7.112;2023-08-06T06:50:54;5.53;;;3.27;;
313;SDS011;143;51.634;7.112;2023-08-06T06:53:21;3.93;;;3.57;;
313;SDS011;143;51.634;7.112;2023-08-06T06:55:56;11.53;;;4.10;;
313;SDS011;143;51.634;7.112;2023-08-06T06:58:27;6.83;;;3.10;;
313;SDS011;143;51.634;7.112;2023-08-06T07:00:53;11.00;;;4.07;;
313;SDS011;143;51.634;7.112;2023-08-06T07:03:19;5.67;;;2.97;;
313;SDS011;143;51.634;7.112;2023-08-06T07:05:45;6.73;;;3.23;;
313;SDS011;143;51.634;7.112;2023-08-06T07:08:11;7.77;;;3.10;;
313;SDS011;143;51.634;7.112;2023-08-06T07:10:37;4.30;;;3.07;;
313;SDS011;143;51.634;7.112;2023-08-06T07:13:03;4.83;;;2.67;;
313;SDS011;143;51.634;7.112;2023-08-06T07:15:29;4.20;;;2.90;;
313;SDS011;143;51.634;7.112;2023-08-06T07:17:54;11.23;;;3.70;;
313;SDS011;143;51.634;7.112;2023-08-06T07:20:20;6.73;;;2.67;;
313;SDS011;143;51.634;7.112;2023-08-06T07:22:46;6.20;;;2.77;;
313;SDS011;143;51.634;7.112;2023-08-06T07:25:11;6.67;;;2.73;;
313;SDS011;143;51.634;7.112;2023-08-06T07:27:37;5.93;;;2.93;;
313;SDS011;143;51.634;7.112;2023-08-06T07:30:03;8.67;;;3.07;;
313;SDS011;143;51.634;7.112;2023-08-06T07:32:30;10.80;;;2.83;;
313;SDS011;143;51.634;7.112;2023-08-06T07:34:56;5.33;;;3.20;;
313;SDS011;143;51.634;7.112;2023-08-06T07:37:25;7.37;;;3.57;;
313;SDS011;143;51.634;7.112;2023-08-06T07:39:53;4.37;;;2.97;;
313;SDS011;143;51.634;7.112;2023-08-06T07:42:22;5.33;;;2.80;;
313;SDS011;143;51.634;7.112;2023-08-06T07:44:54;5.30;;;3.17;;
313;SDS011;143;51.634;7.112;2023-08-06T07:47:21;6.27;;;2.90;;
313;SDS011;143;51.634;7.112;2023-08-06T07:49:47;9.03;;;3.70;;
313;SDS011;143;51.634;7.112;2023-08-06T07:52:13;4.57;;;2.87;;
313;SDS011;143;51.634;7.112;2023-08-06T07:54:38;6.03;;;3.20;;
313;SDS011;143;51.634;7.112;2023-08-06T07:57:04;7.33;;;3.53;;
313;SDS011;143;51.634;7.112;2023-08-06T07:59:30;8.00;;;3.87;;
313;SDS011;143;51.634;7.112;2023-08-06T08:01:56;5.67;;;4.20;;
313;SDS011;143;51.634;7.112;2023-08-06T08:04:21;7.80;;;4.53;;
313;SDS011;143;51.634;7.112;2023-08-06T08:06:48;6.77;;;3.53;;
313;SDS011;143;51.634;7.112;2023-08-06T08:09:14;12.27;;;4.20;;
313;SDS011;143;51.634;7.112;2023-08-06T08:11:40;10.40;;;3.80;;
313;SDS011;143;51.634;7.112;2023-08-06T08:14:06;6.23;;;3.40;;
313;SDS011;143;51.634;7.112;2023-08-06T08:16:31;10.27;;;3.53;;
313;SDS011;143;51.634;7.112;2023-08-06T08:18:57;5.13;;;2.97;;
313;SDS011;143;51.634;7.112;2023-08-06T08:21:23;7.50;;;2.97;;
313;SDS011;143;51.634;7.112;2023-08-06T08:23:50;5.17;;;3.30;;
313;SDS011;143;51.634;7.112;2023-08-06T08:26:16;4.43;;;3.30;;
313;SDS011;143;51.634;7.112;2023-08-06T08:28:41;5.10;;;3.97;;
313;SDS011;143;51.634;7.112;2023-08-06T08:31:08;6.60;;;4.53;;
313;SDS011;143;51.634;7.112;2023-08-06T08:33:34;9.50;;;5.60;;
313;SDS011;143;51.634;7.112;2023-08-06T08:36:00;6.50;;;5.20;;
313;SDS011;143;51.634;7.112;2023-08-06T08:38:25;7.83;;;5.40;;
313;SDS011;143;51.634;7.112;2023-08-06T08:40:51;7.30;;;5.57;;
313;SDS011;143;51.634;7.112;2023-08-06T08:43:21;6.53;;;5.30;;
313;SDS011;143;51.634;7.112;2023-08-06T08:45:51;8.27;;;4.30;;
313;SDS011;143;51.634;7.112;2023-08-06T08:48:20;10.23;;;3.93;;
313;SDS011;143;51.634;7.112;2023-08-06T08:50:46;6.00;;;3.70;;
313;SDS011;143;51.634;7.112;2023-08-06T08:53:14;5.20;;;3.23;;
313;SDS011;143;51.634;7.112;2023-08-06T08:55:41;10.30;;;3.80;;
313;SDS011;143;51.634;7.112;2023-08-06T08:58:09;5.77;;;3.37;;
313;SDS011;143;51.634;7.112;2023-08-06T09:00:35;4.70;;;3.30;;
313;SDS011;143;51.634;7.112;2023-08-06T09:03:01;4.13;;;3.07;;
313;SDS011;143;51.634;7.112;2023-08-06T09:05:29;7.40;;;3.70;;
313;SDS011;143;51.634;7.112;2023-08-06T09:08:07;5.03;;;3.60;;
313;SDS011;143;51.634;7.112;2023-08-06T09:10:36;8.03;;;3.97;;
313;SDS011;143;51.634;7.112;2023-08-06T09:13:03;5.80;;;3.50;;
313;SDS011;143;51.634;7.112;2023-08-06T09:15:29;13.10;;;4.20;;
313;SDS011;143;51.634;7.112;2023-08-06T09:17:56;5.30;;;3.80;;
313;SDS011;143;51.634;7.112;2023-08-06T09:20:22;5.77;;;4.17;;
313;SDS011;143;51.634;7.112;2023-08-06T09:22:47;7.67;;;5.20;;
313;SDS011;143;51.634;7.112;2023-08-06T09:25:23;7.50;;;5.43;;
313;SDS011;143;51.634;7.112;2023-08-06T09:27:50;8.70;;;5.20;;
313;SDS011;143;51.634;7.112;2023-08-06T09:30:32;10.10;;;4.87;;
313;SDS011;143;51.634;7.112;2023-08-06T09:33:00;10.67;;;5.33;;
313;SDS011;143;51.634;7.112;2023-08-06T09:35:30;9.23;;;5.60;;
313;SDS011;143;51.634;7.112;2023-08-06T09:38:09;7.10;;;5.10;;
313;SDS011;143;51.634;7.112;2023-08-06T09:40:36;6.13;;;5.17;;
313;SDS011;143;51.634;7.112;2023-08-06T09:43:03;6.93;;;5.13;;
313;SDS011;143;51.634;7.112;2023-08-06T09:45:31;6.87;;;5.03;;
313;SDS011;143;51.634;7.112;2023-08-06T09:47:58;6.27;;;5.27;;
313;SDS011;143;51.634;7.112;2023-08-06T09:50:28;6.83;;;5.67;;
313;SDS011;143;51.634;7.112;2023-08-06T09:52:59;11.80;;;5.47;;
313;SDS011;143;51.634;7.112;2023-08-06T09:55:27;10.93;;;4.77;;
313;SDS011;143;51.634;7.112;2023-08-06T09:57:53;13.23;;;4.60;;
313;SDS011;143;51.634;7.112;2023-08-06T10:00:19;7.60;;;4.40;;
313;SDS011;143;51.634;7.112;2023-08-06T10:02:45;4.60;;;4.00;;
313;SDS011;143;51.634;7.112;2023-08-06T10:05:12;8.03;;;3.83;;
313;SDS011;143;51.634;7.112;2023-08-06T10:07:38;3.90;;;3.80;;
313;SDS011;143;51.634;7.112;2023-08-06T10:10:05;5.40;;;4.13;;
313;SDS011;143;51.634;7.112;2023-08-06T10:12:32;8.60;;;4.10;;
313;SDS011;143;51.634;7.112;2023-08-06T10:15:07;4.13;;;3.80;;
313;SDS011;143;51.634;7.112;2023-08-06T10:17:35;4.60;;;3.77;;
313;SDS011;143;51.634;7.112;2023-08-06T10:20:08;8.60;;;4.90;;
313;SDS011;143;51.634;7.112;2023-08-06T10:22:34;6.17;;;3.90;;
313;SDS011;143;51.634;7.112;2023-08-06T10:25:01;7.07;;;3.53;;
313;SDS011;143;51.634;7.112;2023-08-06T10:27:36;5.10;;;4.00;;
313;SDS011;143;51.634;7.112;2023-08-06T10:30:32;8.10;;;3.50;;
313;SDS011;143;51.634;7.112;2023-08-06T10:33:03;4.20;;;3.37;;
313;SDS011;143;51.634;7.112;2023-08-06T10:35:46;6.80;;;3.97;;
313;SDS011;143;51.634;7.112;2023-08-06T10:38:19;6.00;;;3.50;;
313;SDS011;143;51.634;7.112;2023-08-06T10:45:55;4.77;;;3.90;;
313;SDS011;143;51.634;7.112;2023-08-06T10:48:34;5.47;;;3.40;;
313;SDS011;143;51.634;7.112;2023-08-06T10:51:01;5.93;;;3.80;;
313;SDS011;143;51.634;7.112;2023-08-06T10:53:28;4.87;;;3.77;;
313;SDS011;143;51.634;7.112;2023-08-06T10:55:54;5.60;;;4.00;;
313;SDS011;143;51.634;7.112;2023-08-06T10:58:20;7.40;;;3.23;;
313;SDS011;143;51.634;7.112;2023-08-06T11:00:46;6.00;;;3.97;;
313;SDS011;143;51.634;7.112;2023-08-06T11:03:12;5.10;;;3.50;;
313;SDS011;143;51.634;7.112;2023-08-06T11:05:38;3.87;;;2.80;;
313;SDS011;143;51.634;7.112;2023-08-06T11:08:04;6.00;;;3.07;;
313;SDS011;143;51.634;7.112;2023-08-06T11:10:32;3.10;;;2.67;;
313;SDS011;143;51.634;7.112;2023-08-06T11:13:01;6.47;;;3.50;;
313;SDS011;143;51.634;7.112;2023-08-06T11:15:28;3.27;;;2.63;;
313;SDS011;143;51.634;7.112;2023-08-06T11:17:55;4.77;;;3.57;;
313;SDS011;143;51.634;7.112;2023-08-06T11:20:21;4.40;;;3.00;;
313;SDS011;143;51.634;7.112;2023-08-06T11:22:49;3.57;;;2.97;;
313;SDS011;143;51.634;7.112;2023-08-06T11:25:15;6.03;;;3.17;;
313;SDS011;143;51.634;7.112;2023-08-06T11:27:41;3.83;;;3.10;;
313;SDS011;143;51.634;7.112;2023-08-06T11:30:07;3.90;;;3.40;;
313;SDS011;143;51.634;7.112;2023-08-06T11:32:44;4.70;;;3.00;;
313;SDS011;143;51.634;7.112;2023-08-06T11:35:12;4.50;;;2.93;;
313;SDS011;143;51.634;7.112;2023-08-06T11:37:38;4.83;;;3.63;;
313;SDS011;143;51.634;7.112;2023-08-06T11:40:09;3.30;;;3.03;;
313;SDS011;143;51.634;7.112;2023-08-06T11:42:36;4.27;;;3.40;;
313;SDS011;143;51.634;7.112;2023-08-06T11:45:02;4.50;;;3.70;;
313;SDS011;143;51.634;7.112;2023-08-06T11:47:29;8.23;;;4.20;;
313;SDS011;143;51.634;7.112;2023-08-06T11:49:55;5.67;;;4.20;;
313;SDS011;143;51.634;7.112;2023-08-06T11:52:21;8.40;;;6.10;;
313;SDS011;143;51.634;7.112;2023-08-06T11:55:07;9.60;;;5.70;;
313;SDS011;143;51.634;7.112;2023-08-06T11:57:37;9.83;;;6.27;;
313;SDS011;143;51.634;7.112;2023-08-06T12:00:11;7.97;;;6.50;;
313;SDS011;143;51.634;7.112;2023-08-06T12:02:41;10.13;;;7.27;;
313;SDS011;143;51.634;7.112;2023-08-06T12:07:41;11.77;;;7.97;;
313;SDS011;143;51.634;7.112;2023-08-06T12:10:09;10.83;;;8.13;;
313;SDS011;143;51.634;7.112;2023-08-06T12:12:35;12.20;;;9.63;;
313;SDS011;143;51.634;7.112;2023-08-06T12:15:02;9.00;;;7.97;;
313;SDS011;143;51.634;7.112;2023-08-06T12:17:28;9.60;;;7.80;;
313;SDS011;143;51.634;7.112;2023-08-06T12:19:54;12.93;;;9.00;;
313;SDS011;143;51.634;7.112;2023-08-06T12:22:20;11.67;;;8.70;;
313;SDS011;143;51.634;7.112;2023-08-06T12:24:46;14.83;;;9.03;;
313;SDS011;143;51.634;7.112;2023-08-06T12:27:13;7.37;;;5.97;;
313;SDS011;143;51.634;7.112;2023-08-06T12:29:42;6.60;;;5.40;;
313;SDS011;143;51.634;7.112;2023-08-06T12:32:12;8.40;;;4.90;;
313;SDS011;143;51.634;7.112;2023-08-06T12:34:38;8.80;;;4.10;;
313;SDS011;143;51.634;7.112;2023-08-06T12:37:05;4.47;;;3.00;;
313;SDS011;143;51.634;7.112;2023-08-06T12:39:32;6.53;;;2.40;;
313;SDS011;143;51.634;7.112;2023-08-06T12:41:59;10.37;;;3.20;;
313;SDS011;143;51.634;7.112;2023-08-06T12:44:24;5.93;;;2.47;;
313;SDS011;143;51.634;7.112;2023-08-06T12:46:51;11.93;;;1.83;;
313;SDS011;143;51.634;7.112;2023-08-06T12:49:19;3.73;;;1.30;;
313;SDS011;143;51.634;7.112;2023-08-06T12:51:49;3.73;;;1.67;;
313;SDS011;143;51.634;7.112;2023-08-06T12:54:17;7.17;;;0.90;;
313;SDS011;143;51.634;7.112;2023-08-06T12:56:43;2.13;;;0.90;;
313;SDS011;143;51.634;7.112;2023-08-06T12:59:10;2.10;;;1.10;;
313;SDS011;143;51.634;7.112;2023-08-06T13:01:37;1.87;;;0.90;;
313;SDS011;143;51.634;7.112;2023-08-06T13:04:03;1.67;;;0.97;;
313;SDS011;143;51.634;7.112;2023-08-06T13:06:29;1.00;;;0.70;;
313;SDS011;143;51.634;7.112;2023-08-06T13:08:56;1.90;;;1.07;;
313;SDS011;143;51.634;7.112;2023-08-06T13:11:22;1.70;;;0.93;;
313;SDS011;143;51.634;7.112;2023-08-06T13:13:48;1.13;;;0.90;;
313;SDS011;143;51.634;7.112;2023-08-06T13:16:13;4.20;;;1.10;;
313;SDS011;143;51.634;7.112;2023-08-06T13:18:39;1.17;;;0.87;;
313;SDS011;143;51.634;7.112;2023-08-06T13:21:05;5.00;;;1.10;;
313;SDS011;143;51.634;7.112;2023-08-06T13:23:30;2.40;;;1.23;;
313;SDS011;143;51.634;7.112;2023-08-06T13:25:56;1.93;;;0.90;;
313;SDS011;143;51.634;7.112;2023-08-06T13:28:22;1.33;;;0.83;;
313;SDS011;143;51.634;7.112;2023-08-06T13:30:47;1.53;;;0.90;;
313;SDS011;143;51.634;7.112;2023-08-06T13:33:13;2.30;;;0.93;;
313;SDS011;143;51.634;7.112;2023-08-06T13:35:39;1.87;;;1.00;;
313;SDS011;143;51.634;7.112;2023-08-06T13:38:06;1.37;;;0.77;;
313;SDS011;143;51.634;7.112;2023-08-06T13:40:32;1.63;;;0.90;;
313;SDS011;143;51.634;7.112;2023-08-06T13:42:59;2.13;;;0.87;;
313;SDS011;143;51.634;7.112;2023-08-06T13:45:25;2.80;;;1.10;;
313;SDS011;143;51.634;7.112;2023-08-06T13:47:51;1.40;;;0.97;;
313;SDS011;143;51.634;7.112;2023-08-06T13:50:16;1.33;;;0.80;;
313;SDS011;143;51.634;7.112;2023-08-06T13:52:44;1.93;;;0.90;;
313;SDS011;143;51.634;7.112;2023-08-06T13:55:10;1.20;;;0.90;;
313;SDS011;143;51.634;7.112;2023-08-06T13:57:36;1.30;;;1.00;;
313;SDS011;143;51.634;7.112;2023-08-06T14:00:03;1.60;;;1.10;;
313;SDS011;143;51.634;7.112;2023-08-06T14:02:29;1.63;;;1.03;;
313;SDS011;143;51.634;7.112;2023-08-06T14:04:55;1.53;;;0.80;;
313;SDS011;143;51.634;7.112;2023-08-06T14:07:21;2.07;;;0.80;;
313;SDS011;143;51.634;7.112;2023-08-06T14:09:46;1.10;;;0.90;;
313;SDS011;143;51.634;7.112;2023-08-06T14:12:12;1.30;;;0.97;;
313;SDS011;143;51.634;7.112;2023-08-06T14:14:39;2.27;;;1.00;;
313;SDS011;143;51.634;7.112;2023-08-06T14:17:05;2.40;;;1.10;;
313;SDS011;143;51.634;7.112;2023-08-06T14:19:31;2.53;;;0.93;;
313;SDS011;143;51.634;7.112;2023-08-06T14:21:56;1.20;;;1.00;;
313;SDS011;143;51.634;7.112;2023-08-06T14:24:22;1.20;;;0.90;;
313;SDS011;143;51.634;7.112;2023-08-06T14:26:48;2.43;;;0.90;;
313;SDS011;143;51.634;7.112;2023-08-06T14:29:13;1.50;;;0.90;;
313;SDS011;143;51.634;7.112;2023-08-06T14:31:42;1.00;;;0.90;;
313;SDS011;143;51.634;7.112;2023-08-06T14:34:08;1.50;;;1.20;;
313;SDS011;143;51.634;7.112;2023-08-06T14:36:33;3.20;;;0.97;;
313;SDS011;143;51.634;7.112;2023-08-06T14:38:59;1.40;;;1.20;;
313;SDS011;143;51.634;7.112;2023-08-06T14:41:24;1.20;;;1.00;;
313;SDS011;143;51.634;7.112;2023-08-06T14:43:50;1.40;;;1.03;;
313;SDS011;143;51.634;7.112;2023-08-06T14:46:16;1.60;;;1.30;;
313;SDS011;143;51.634;7.112;2023-08-06T14:48:42;1.57;;;1.10;;
313;SDS011;143;51.634;7.112;2023-08-06T14:51:08;2.07;;;1.10;;
313;SDS011;143;51.634;7.112;2023-08-06T14:53:34;1.43;;;1.00;;
313;SDS011;143;51.634;7.112;2023-08-06T14:56:00;1.20;;;1.07;;
313;SDS011;143;51.634;7.112;2023-08-06T14:58:25;2.73;;;1.50;;
313;SDS011;143;51.634;7.112;2023-08-06T15:00:52;4.00;;;1.40;;
313;SDS011;143;51.634;7.112;2023-08-06T15:03:17;2.10;;;1.20;;
313;SDS011;143;51.634;7.112;2023-08-06T15:05:43;1.67;;;1.00;;
313;SDS011;143;51.634;7.112;2023-08-06T15:08:11;3.93;;;1.13;;
313;SDS011;143;51.634;7.112;2023-08-06T15:10:37;2.23;;;1.37;;
313;SDS011;143;51.634;7.112;2023-08-06T15:13:02;2.43;;;1.60;;
313;SDS011;143;51.634;7.112;2023-08-06T15:15:28;3.20;;;1.67;;
313;SDS011;143;51.634;7.112;2023-08-06T15:17:54;4.10;;;1.67;;
313;SDS011;143;51.634;7.112;2023-08-06T15:20:20;1.50;;;1.20;;
313;SDS011;143;51.634;7.112;2023-08-06T15:22:47;4.17;;;1.60;;
313;SDS011;143;51.634;7.112;2023-08-06T15:25:13;3.03;;;1.20;;
313;SDS011;143;51.634;7.112;2023-08-06T15:27:38;2.27;;;1.43;;
313;SDS011;143;51.634;7.112;2023-08-06T15:30:05;2.93;;;1.47;;
313;SDS011;143;51.634;7.112;2023-08-06T15:32:31;2.10;;;1.53;;
313;SDS011;143;51.634;7.112;2023-08-06T15:34:57;1.73;;;1.47;;
313;SDS011;143;51.634;7.112;2023-08-06T15:37:23;1.83;;;1.50;;
313;SDS011;143;51.634;7.112;2023-08-06T15:39:49;1.50;;;1.20;;
313;SDS011;143;51.634;7.112;2023-08-06T15:42:14;1.67;;;1.40;;
313;SDS011;143;51.634;7.112;2023-08-06T15:44:40;4.27;;;2.10;;
313;SDS011;143;51.634;7.112;2023-08-06T15:47:06;2.97;;;1.73;;
313;SDS011;143;51.634;7.112;2023-08-06T15:49:32;2.93;;;2.10;;